createdAt,value
2022-11-04T00:00:21.972Z,99.58
2022-11-04T00:01:20.983Z,99.13
2022-11-04T00:02:20.014Z,99.27
2022-11-04T00:03:19.963Z,98.93
2022-11-04T00:04:19.925Z,99.02
2022-11-04T00:05:19.934Z,98.82
2022-11-04T00:06:19.917Z,99.02
2022-11-04T00:07:19.903Z,98.97
2022-11-04T00:08:19.946Z,98.66
2022-11-04T00:09:19.879Z,99.18
2022-11-04T00:10:19.873Z,98.86
2022-11-04T00:11:19.911Z,98.72
2022-11-04T00:12:19.885Z,99.13
2022-11-04T00:13:19.980Z,99.18
2022-11-04T00:14:19.843Z,99.02
2022-11-04T00:15:19.871Z,99.27
2022-11-04T00:16:19.942Z,99.27
2022-11-04T00:17:20.087Z,98.77
2022-11-04T00:18:19.823Z,99.68
2022-11-04T00:19:19.796Z,98.77
2022-11-04T00:20:19.762Z,98.93
2022-11-04T00:21:19.813Z,98.46
2022-11-04T00:22:19.750Z,98.46
2022-11-04T00:23:19.756Z,99.18
2022-11-04T00:24:19.749Z,99.07
2022-11-04T00:25:19.838Z,99.27
2022-11-04T00:26:19.713Z,98.56
2022-11-04T00:27:19.728Z,98.97
2022-11-04T00:28:19.684Z,98.72
2022-11-04T00:29:19.668Z,98.77
2022-11-04T00:30:19.754Z,98.77
2022-11-04T00:31:19.791Z,98.86
2022-11-04T00:32:19.620Z,98.66
2022-11-04T00:33:19.678Z,98.66
2022-11-04T00:34:19.615Z,98.46
2022-11-04T00:35:19.610Z,98.66
2022-11-04T00:36:19.628Z,98.77
2022-11-04T00:37:19.566Z,98.66
2022-11-04T00:38:19.566Z,98.46
2022-11-04T00:39:19.562Z,98.77
2022-11-04T00:40:19.623Z,98.97
2022-11-04T00:41:19.631Z,98.66
2022-11-04T00:42:19.521Z,98.86
2022-11-04T00:43:19.553Z,98.86
2022-11-04T00:44:19.566Z,98.66
2022-11-04T00:45:19.477Z,99.02
2022-11-04T00:46:19.481Z,98.56
2022-11-04T00:47:19.526Z,98.86
2022-11-04T00:48:19.572Z,98.15
2022-11-04T00:49:19.458Z,98.66
2022-11-04T00:50:19.447Z,99.38
2022-11-04T00:51:19.446Z,99.27
2022-11-04T00:52:19.404Z,99.58
2022-11-04T00:53:19.423Z,99.18
2022-11-04T00:54:19.402Z,99.38
2022-11-04T00:55:19.367Z,99.99
2022-11-04T00:56:19.370Z,99.99
2022-11-04T00:57:19.355Z,99.99
2022-11-04T00:58:19.354Z,99.99
2022-11-04T00:59:19.332Z,99.99
2022-11-04T01:00:19.315Z,99.99
2022-11-04T01:01:19.548Z,99.98
2022-11-04T01:02:19.434Z,99.99
2022-11-04T01:03:19.320Z,99.99
2022-11-04T01:04:19.335Z,99.99
2022-11-04T01:05:19.293Z,99.99
2022-11-04T01:06:19.324Z,99.99
2022-11-04T01:07:19.243Z,99.99
2022-11-04T01:08:19.291Z,99.99
2022-11-04T01:09:19.289Z,99.99
2022-11-04T01:10:19.217Z,99.99
2022-11-04T01:11:19.205Z,99.99
2022-11-04T01:12:19.185Z,99.99
2022-11-04T01:13:19.189Z,99.99
2022-11-04T01:14:19.185Z,99.99
2022-11-04T01:15:19.167Z,99.99
2022-11-04T01:16:19.377Z,99.99
2022-11-04T01:17:19.141Z,99.99
2022-11-04T01:18:19.201Z,99.88
2022-11-04T01:19:19.147Z,99.99
2022-11-04T01:20:19.158Z,99.78
2022-11-04T01:21:19.120Z,99.99
2022-11-04T01:22:19.126Z,99.62
2022-11-04T01:23:19.106Z,99.99
2022-11-04T01:24:19.083Z,99.57
2022-11-04T01:25:19.046Z,99.27
2022-11-04T01:26:19.070Z,99.06
2022-11-04T01:27:19.046Z,99.47
2022-11-04T01:28:19.061Z,99.06
2022-11-04T01:29:19.020Z,98.96
2022-11-04T01:30:18.986Z,98.96
2022-11-04T01:31:18.979Z,98.55
2022-11-04T01:32:18.980Z,98.86
2022-11-04T01:33:18.975Z,99.27
2022-11-04T01:34:18.953Z,98.90
2022-11-04T01:35:18.946Z,99.06
2022-11-04T01:36:18.934Z,98.86
2022-11-04T01:37:18.908Z,99.16
2022-11-04T01:38:18.971Z,98.45
2022-11-04T01:39:18.923Z,98.14
2022-11-04T01:40:18.923Z,98.65
2022-11-04T01:41:18.914Z,98.24
2022-11-04T01:42:18.879Z,98.86
2022-11-04T01:43:18.854Z,98.75
2022-11-04T01:44:18.873Z,97.74
2022-11-04T01:45:18.867Z,97.83
2022-11-04T01:46:18.824Z,98.04
2022-11-04T01:47:18.921Z,98.08
2022-11-04T01:48:18.852Z,97.63
2022-11-04T01:49:18.800Z,98.29
2022-11-04T01:50:18.868Z,98.19
2022-11-04T01:51:18.843Z,98.08
2022-11-04T01:52:18.762Z,98.19
2022-11-04T01:53:18.839Z,98.08
2022-11-04T01:54:18.739Z,98.04
2022-11-04T01:55:18.784Z,98.29
2022-11-04T01:56:18.747Z,97.67
2022-11-04T01:57:18.701Z,97.78
2022-11-04T01:58:18.813Z,97.88
2022-11-04T01:59:18.670Z,97.88
2022-11-04T02:00:18.680Z,97.88
2022-11-04T02:01:18.757Z,97.02
2022-11-04T02:02:18.876Z,97.22
2022-11-04T02:03:18.700Z,97.37
2022-11-04T02:04:18.611Z,97.27
2022-11-04T02:05:18.623Z,97.78
2022-11-04T02:06:18.607Z,96.75
2022-11-04T02:07:18.591Z,97.27
2022-11-04T02:08:18.722Z,97.16
2022-11-04T02:09:18.584Z,97.02
2022-11-04T02:10:18.623Z,96.81
2022-11-04T02:11:18.601Z,96.71
2022-11-04T02:12:18.626Z,97.27
2022-11-04T02:13:18.541Z,96.92
2022-11-04T02:14:18.559Z,97.53
2022-11-04T02:15:18.502Z,97.02
2022-11-04T02:16:18.495Z,96.41
2022-11-04T02:17:18.477Z,96.20
2022-11-04T02:18:18.524Z,96.71
2022-11-04T02:19:18.449Z,96.20
2022-11-04T02:20:18.469Z,96.41
2022-11-04T02:21:18.426Z,96.92
2022-11-04T02:22:18.451Z,96.10
2022-11-04T02:23:18.452Z,96.61
2022-11-04T02:24:18.404Z,96.00
2022-11-04T02:25:18.388Z,96.61
2022-11-04T02:26:18.372Z,96.41
2022-11-04T02:27:18.430Z,96.51
2022-11-04T02:28:18.508Z,96.61
2022-11-04T02:29:18.353Z,96.51
2022-11-04T02:30:18.364Z,96.25
2022-11-04T02:31:18.336Z,96.75
2022-11-04T02:32:18.306Z,96.86
2022-11-04T02:33:18.332Z,97.27
2022-11-04T02:34:18.297Z,97.27
2022-11-04T02:35:18.366Z,97.11
2022-11-04T02:36:18.323Z,96.66
2022-11-04T02:37:18.259Z,96.55
2022-11-04T02:38:18.391Z,96.34
2022-11-04T02:39:18.377Z,96.55
2022-11-04T02:40:18.299Z,96.75
2022-11-04T02:41:18.233Z,97.27
2022-11-04T02:42:18.245Z,97.27
2022-11-04T02:43:18.222Z,97.47
2022-11-04T02:44:18.191Z,97.00
2022-11-04T02:45:18.242Z,97.72
2022-11-04T02:46:18.210Z,97.41
2022-11-04T02:47:18.160Z,97.41
2022-11-04T02:48:18.241Z,97.62
2022-11-04T02:49:18.144Z,97.62
2022-11-04T02:50:18.114Z,97.41
2022-11-04T02:51:18.119Z,97.92
2022-11-04T02:52:18.206Z,97.92
2022-11-04T02:53:18.092Z,97.72
2022-11-04T02:54:18.123Z,97.16
2022-11-04T02:55:18.087Z,97.16
2022-11-04T02:56:18.056Z,97.57
2022-11-04T02:57:18.071Z,97.27
2022-11-04T02:58:18.031Z,97.37
2022-11-04T02:59:18.012Z,97.06
2022-11-04T03:00:18.126Z,97.27
2022-11-04T03:01:18.174Z,97.67
2022-11-04T03:02:18.128Z,97.27
2022-11-04T03:03:18.021Z,97.57
2022-11-04T03:04:17.994Z,97.27
2022-11-04T03:05:17.977Z,97.37
2022-11-04T03:06:17.947Z,97.06
2022-11-04T03:07:17.992Z,97.57
2022-11-04T03:08:18.046Z,97.27
2022-11-04T03:09:17.944Z,97.27
2022-11-04T03:10:17.981Z,97.37
2022-11-04T03:11:17.904Z,96.45
2022-11-04T03:12:17.909Z,96.81
2022-11-04T03:13:18.015Z,96.66
2022-11-04T03:14:17.900Z,96.25
2022-11-04T03:15:17.904Z,96.41
2022-11-04T03:16:17.842Z,96.55
2022-11-04T03:17:17.930Z,96.25
2022-11-04T03:18:17.812Z,96.51
2022-11-04T03:19:17.798Z,96.41
2022-11-04T03:20:17.852Z,96.20
2022-11-04T03:21:17.777Z,95.89
2022-11-04T03:22:17.801Z,95.89
2022-11-04T03:23:17.755Z,96.00
2022-11-04T03:24:17.766Z,96.30
2022-11-04T03:25:17.773Z,96.30
2022-11-04T03:26:17.744Z,96.66
2022-11-04T03:27:17.808Z,96.55
2022-11-04T03:28:17.758Z,96.00
2022-11-04T03:29:17.733Z,96.66
2022-11-04T03:31:17.689Z,96.45
2022-11-04T03:32:17.689Z,96.25
2022-11-04T03:33:17.789Z,96.34
2022-11-04T03:34:17.656Z,96.55
2022-11-04T03:35:17.643Z,96.04
2022-11-04T03:36:17.656Z,96.45
2022-11-04T03:37:17.674Z,95.94
2022-11-04T03:38:17.602Z,96.45
2022-11-04T03:39:17.614Z,96.14
2022-11-04T03:40:17.567Z,96.55
2022-11-04T03:41:17.588Z,96.45
2022-11-04T03:42:17.589Z,96.66
2022-11-04T03:43:17.573Z,96.14
2022-11-04T03:44:17.542Z,96.14
2022-11-04T03:45:17.519Z,96.29
2022-11-04T03:46:17.520Z,96.55
2022-11-04T03:47:17.506Z,96.70
2022-11-04T03:48:17.496Z,96.39
2022-11-04T03:49:17.508Z,96.39
2022-11-04T03:50:17.494Z,96.45
2022-11-04T03:51:17.450Z,96.70
2022-11-04T03:52:17.461Z,95.94
2022-11-04T03:53:17.497Z,96.75
2022-11-04T03:54:17.459Z,96.49
2022-11-04T03:55:17.501Z,96.29
2022-11-04T03:56:17.410Z,96.39
2022-11-04T03:57:17.431Z,96.39
2022-11-04T03:58:17.400Z,96.59
2022-11-04T03:59:17.385Z,96.29
2022-11-04T04:00:17.359Z,96.39
2022-11-04T04:01:17.493Z,96.19
2022-11-04T04:02:17.417Z,96.70
2022-11-04T04:03:17.449Z,96.29
2022-11-04T04:04:17.360Z,96.54
2022-11-04T04:05:18.913Z,96.74
2022-11-04T04:06:17.319Z,96.33
2022-11-04T04:07:17.309Z,97.46
2022-11-04T04:08:17.276Z,96.84
2022-11-04T04:09:17.258Z,97.46
2022-11-04T04:10:17.301Z,97.71
2022-11-04T04:11:17.263Z,97.40
2022-11-04T04:12:17.242Z,97.40
2022-11-04T04:13:17.313Z,97.71
2022-11-04T04:14:17.229Z,97.91
2022-11-04T04:15:17.238Z,97.50
2022-11-04T04:16:17.228Z,97.61
2022-11-04T04:17:17.196Z,96.23
2022-11-04T04:18:17.202Z,96.79
2022-11-04T04:19:17.155Z,96.58
2022-11-04T04:20:17.132Z,96.95
2022-11-04T04:21:17.299Z,96.79
2022-11-04T04:22:17.110Z,96.23
2022-11-04T04:23:17.125Z,96.13
2022-11-04T04:24:17.135Z,95.62
2022-11-04T04:25:17.092Z,95.51
2022-11-04T04:26:17.413Z,95.51
2022-11-04T04:27:17.124Z,94.90
2022-11-04T04:28:17.094Z,95.51
2022-11-04T04:29:17.057Z,94.90
2022-11-04T04:30:17.055Z,95.31
2022-11-04T04:31:17.078Z,95.62
2022-11-04T04:32:17.045Z,95.41
2022-11-04T04:33:17.014Z,95.62
2022-11-04T04:34:17.072Z,95.51
2022-11-04T04:35:16.968Z,95.51
2022-11-04T04:36:16.972Z,95.41
2022-11-04T04:37:17.046Z,94.90
2022-11-04T04:38:16.948Z,95.31
2022-11-04T04:39:16.964Z,95.72
2022-11-04T04:40:20.880Z,95.10
2022-11-04T04:41:17.943Z,95.31
2022-11-04T04:42:16.957Z,95.72
2022-11-04T04:43:16.934Z,95.62
2022-11-04T04:44:16.944Z,95.41
2022-11-04T04:45:16.854Z,95.31
2022-11-04T04:46:16.899Z,94.70
2022-11-04T04:47:16.849Z,94.29
2022-11-04T04:48:16.823Z,93.98
2022-11-04T04:49:16.896Z,94.04
2022-11-04T04:50:16.827Z,94.39
2022-11-04T04:51:16.934Z,93.98
2022-11-04T04:52:16.793Z,94.29
2022-11-04T04:53:16.774Z,94.55
2022-11-04T04:54:16.858Z,94.08
2022-11-04T04:55:16.753Z,93.84
2022-11-04T04:56:16.791Z,94.08
2022-11-04T04:57:16.737Z,94.18
2022-11-04T04:58:16.777Z,93.98
2022-11-04T04:59:16.837Z,93.47
2022-11-04T05:00:16.708Z,93.77
2022-11-04T05:01:16.772Z,93.77
2022-11-04T05:02:16.972Z,92.65
2022-11-04T05:03:16.709Z,93.22
2022-11-04T05:04:16.665Z,93.43
2022-11-04T05:05:16.701Z,93.26
2022-11-04T05:06:16.626Z,92.65
2022-11-04T05:07:16.616Z,93.06
2022-11-04T05:08:16.665Z,92.65
2022-11-04T05:09:16.707Z,92.55
2022-11-04T05:10:16.623Z,92.65
2022-11-04T05:11:16.612Z,92.75
2022-11-04T05:12:16.666Z,93.37
2022-11-04T05:13:16.574Z,93.47
2022-11-04T05:14:16.545Z,93.71
2022-11-04T05:15:16.615Z,93.62
2022-11-04T05:16:16.548Z,93.41
2022-11-04T05:17:16.531Z,93.41
2022-11-04T05:18:16.518Z,93.30
2022-11-04T05:19:16.532Z,93.62
2022-11-04T05:20:16.597Z,93.82
2022-11-04T05:21:16.501Z,92.90
2022-11-04T05:22:16.526Z,93.62
2022-11-04T05:23:16.537Z,93.62
2022-11-04T05:24:16.557Z,93.10
2022-11-04T05:25:16.441Z,92.69
2022-11-04T05:26:16.492Z,93.00
2022-11-04T05:27:16.451Z,93.06
2022-11-04T05:28:16.467Z,92.90
2022-11-04T05:29:16.395Z,92.65
2022-11-04T05:30:16.383Z,92.08
2022-11-04T05:31:16.426Z,91.52
2022-11-04T05:32:16.446Z,91.42
2022-11-04T05:33:16.427Z,91.31
2022-11-04T05:34:16.367Z,91.22
2022-11-04T05:35:16.321Z,91.83
2022-11-04T05:36:16.320Z,91.73
2022-11-04T05:37:16.402Z,91.63
2022-11-04T05:38:16.329Z,91.63
2022-11-04T05:39:16.422Z,91.67
2022-11-04T05:40:16.260Z,91.11
2022-11-04T05:41:16.327Z,91.63
2022-11-04T05:42:16.277Z,91.42
2022-11-04T05:43:16.227Z,91.73
2022-11-04T05:44:16.353Z,92.38
2022-11-04T05:45:16.237Z,91.77
2022-11-04T05:46:16.197Z,92.38
2022-11-04T05:47:16.320Z,91.77
2022-11-04T05:48:16.344Z,91.87
2022-11-04T05:49:16.253Z,92.90
2022-11-04T05:50:16.164Z,92.69
2022-11-04T05:51:16.190Z,92.69
2022-11-04T05:52:16.251Z,93.45
2022-11-04T05:53:16.216Z,93.15
2022-11-04T05:54:16.186Z,93.45
2022-11-04T05:55:16.098Z,93.25
2022-11-04T05:56:16.110Z,93.96
2022-11-04T05:57:16.264Z,92.94
2022-11-04T05:58:16.077Z,93.35
2022-11-04T05:59:16.047Z,93.55
2022-11-04T06:00:16.067Z,94.21
2022-11-04T06:01:16.112Z,95.24
2022-11-04T06:02:16.272Z,94.05
2022-11-04T06:03:16.595Z,94.36
2022-11-04T06:04:16.021Z,94.67
2022-11-04T06:05:16.041Z,94.01
2022-11-04T06:06:16.026Z,93.70
2022-11-04T06:07:16.017Z,94.42
2022-11-04T06:08:15.951Z,93.90
2022-11-04T06:09:15.956Z,93.60
2022-11-04T06:10:15.944Z,93.80
2022-11-04T06:11:15.978Z,93.60
2022-11-04T06:12:16.001Z,94.11
2022-11-04T06:13:15.911Z,94.77
2022-11-04T06:14:18.881Z,94.56
2022-11-04T06:15:15.871Z,95.69
2022-11-04T06:16:15.897Z,95.74
2022-11-04T06:17:15.895Z,96.77
2022-11-04T06:18:15.907Z,96.91
2022-11-04T06:19:16.339Z,97.63
2022-11-04T06:20:15.857Z,97.02
2022-11-04T06:21:15.810Z,97.02
2022-11-04T06:22:16.340Z,97.67
2022-11-04T06:23:15.833Z,97.99
2022-11-04T06:24:15.849Z,98.08
2022-11-04T06:25:15.800Z,98.39
2022-11-04T06:26:15.780Z,98.70
2022-11-04T06:27:15.828Z,98.45
2022-11-04T06:28:15.734Z,98.14
2022-11-04T06:29:15.753Z,98.50
2022-11-04T06:30:15.715Z,97.83
2022-11-04T06:31:15.715Z,98.39
2022-11-04T06:32:15.718Z,98.08
2022-11-04T06:33:15.682Z,98.25
2022-11-04T06:34:15.709Z,96.81
2022-11-04T06:35:15.701Z,96.97
2022-11-04T06:36:15.679Z,96.10
2022-11-04T06:37:15.725Z,96.51
2022-11-04T06:38:15.741Z,96.20
2022-11-04T06:39:15.633Z,95.69
2022-11-04T06:40:15.725Z,95.79
2022-11-04T06:41:15.638Z,95.90
2022-11-04T06:42:15.625Z,96.41
2022-11-04T06:43:15.708Z,95.90
2022-11-04T06:44:15.685Z,93.95
2022-11-04T06:45:15.556Z,94.77
2022-11-04T06:46:15.602Z,94.15
2022-11-04T06:47:18.429Z,94.32
2022-11-04T06:48:16.553Z,95.03
2022-11-04T06:49:15.516Z,95.59
2022-11-04T06:50:15.504Z,96.62
2022-11-04T06:51:15.535Z,96.00
2022-11-04T06:52:15.543Z,94.15
2022-11-04T06:53:15.489Z,92.78
2022-11-04T06:54:15.467Z,93.19
2022-11-04T06:55:15.504Z,93.08
2022-11-04T06:56:15.439Z,92.94
2022-11-04T06:57:15.475Z,91.40
2022-11-04T06:58:15.429Z,91.09
2022-11-04T06:59:15.415Z,90.99
2022-11-04T07:00:15.395Z,91.91
2022-11-04T07:01:21.234Z,91.61
2022-11-04T07:02:16.651Z,91.16
2022-11-04T07:03:15.400Z,91.46
2022-11-04T07:04:15.362Z,91.26
2022-11-04T07:05:15.353Z,91.05
2022-11-04T07:06:15.367Z,91.16
2022-11-04T07:07:15.411Z,92.18
2022-11-04T07:08:15.369Z,93.20
2022-11-04T07:09:15.295Z,91.16
2022-11-04T07:10:15.354Z,90.95
2022-11-04T07:11:15.333Z,91.16
2022-11-04T07:12:15.277Z,91.42
2022-11-04T07:13:15.312Z,89.37
2022-11-04T07:14:15.294Z,90.30
2022-11-04T07:15:15.233Z,91.22
2022-11-04T07:16:15.227Z,91.42
2022-11-04T07:17:15.234Z,90.70
2022-11-04T07:18:15.192Z,89.37
2022-11-04T07:19:15.204Z,90.25
2022-11-04T07:20:15.161Z,90.56
2022-11-04T07:21:15.163Z,88.92
2022-11-04T07:22:15.249Z,89.23
2022-11-04T07:23:15.158Z,88.31
2022-11-04T07:24:15.137Z,89.84
2022-11-04T07:25:15.146Z,89.53
2022-11-04T07:26:15.217Z,89.94
2022-11-04T07:27:15.222Z,89.74
2022-11-04T07:28:15.160Z,88.26
2022-11-04T07:29:15.123Z,87.45
2022-11-04T07:30:15.061Z,88.57
2022-11-04T07:31:15.232Z,88.78
2022-11-04T07:32:15.095Z,89.80
2022-11-04T07:33:15.059Z,89.97
2022-11-04T07:34:15.147Z,90.58
2022-11-04T07:35:15.031Z,92.62
2022-11-04T07:36:15.170Z,92.52
2022-11-04T07:37:15.188Z,93.03
2022-11-04T07:38:15.063Z,89.97
2022-11-04T07:39:15.132Z,92.11
2022-11-04T07:40:14.956Z,90.37
2022-11-04T07:41:14.973Z,90.47
2022-11-04T07:42:14.983Z,91.09
2022-11-04T07:43:14.983Z,90.06
2022-11-04T07:44:14.982Z,92.68
2022-11-04T07:45:14.897Z,90.02
2022-11-04T07:46:14.893Z,89.51
2022-11-04T07:47:14.971Z,90.94
2022-11-04T07:48:14.885Z,89.61
2022-11-04T07:49:14.914Z,84.81
2022-11-04T07:50:14.932Z,87.12
2022-11-04T07:51:14.909Z,87.23
2022-11-04T07:52:14.864Z,87.02
2022-11-04T07:53:14.872Z,88.51
2022-11-04T07:54:14.866Z,88.51
2022-11-04T07:55:14.803Z,86.67
2022-11-04T07:56:14.890Z,85.24
2022-11-04T07:57:14.876Z,86.36
2022-11-04T07:58:14.855Z,84.74
2022-11-04T07:59:14.802Z,85.14
2022-11-04T08:00:14.784Z,84.59
2022-11-04T08:01:14.837Z,86.43
2022-11-04T08:02:14.986Z,87.14
2022-11-04T08:03:14.850Z,86.33
2022-11-04T08:04:14.759Z,85.41
2022-11-04T08:05:14.813Z,83.87
2022-11-04T08:06:14.777Z,82.96
2022-11-04T08:07:14.681Z,83.06
2022-11-04T08:08:14.641Z,83.87
2022-11-04T08:09:14.766Z,83.78
2022-11-04T08:10:14.624Z,84.49
2022-11-04T08:11:17.836Z,84.08
2022-11-04T08:12:14.719Z,85.71
2022-11-04T08:13:14.649Z,87.85
2022-11-04T08:14:14.594Z,86.94
2022-11-04T08:15:14.583Z,88.06
2022-11-04T08:16:14.579Z,83.98
2022-11-04T08:17:14.684Z,84.90
2022-11-04T08:18:14.542Z,84.80
2022-11-04T08:19:14.533Z,83.84
2022-11-04T08:20:14.520Z,85.82
2022-11-04T08:21:14.632Z,84.86
2022-11-04T08:22:14.492Z,85.68
2022-11-04T08:23:14.523Z,85.98
2022-11-04T08:24:14.518Z,87.20
2022-11-04T08:25:14.477Z,86.69
2022-11-04T08:26:14.552Z,84.04
2022-11-04T08:27:14.443Z,84.75
2022-11-04T08:28:14.479Z,85.94
2022-11-04T08:29:14.494Z,86.86
2022-11-04T08:30:14.460Z,84.61
2022-11-04T08:31:14.472Z,84.00
2022-11-04T08:32:14.470Z,85.16
2022-11-04T08:33:14.375Z,83.84
2022-11-04T08:34:14.399Z,83.53
2022-11-04T08:35:14.431Z,82.47
2022-11-04T08:36:14.428Z,85.37
2022-11-04T08:37:14.395Z,84.25
2022-11-04T08:38:14.371Z,84.04
2022-11-04T08:39:14.345Z,82.61
2022-11-04T08:40:14.358Z,82.71
2022-11-04T08:41:14.482Z,83.63
2022-11-04T08:42:14.362Z,83.63
2022-11-04T08:43:14.330Z,84.11
2022-11-04T08:44:14.394Z,83.84
2022-11-04T08:45:14.294Z,84.72
2022-11-04T08:46:14.348Z,82.71
2022-11-04T08:47:14.288Z,83.23
2022-11-04T08:48:14.231Z,84.11
2022-11-04T08:49:19.673Z,83.70
2022-11-04T08:50:15.234Z,83.70
2022-11-04T08:51:14.245Z,84.72
2022-11-04T08:52:14.193Z,86.65
2022-11-04T08:53:14.305Z,85.49
2022-11-04T08:54:14.140Z,84.06
2022-11-04T08:55:14.153Z,84.06
2022-11-04T08:56:14.237Z,83.45
2022-11-04T08:57:14.196Z,84.12
2022-11-04T08:58:14.124Z,84.74
2022-11-04T08:59:14.127Z,85.00
2022-11-04T09:00:14.091Z,85.72
2022-11-04T09:01:14.182Z,82.42
2022-11-04T09:02:14.230Z,80.99
2022-11-04T09:03:14.045Z,82.38
2022-11-04T09:04:14.272Z,81.87
2022-11-04T09:05:14.091Z,83.36
2022-11-04T09:06:14.057Z,81.53
2022-11-04T09:07:14.036Z,79.66
2022-11-04T09:08:14.153Z,80.64
2022-11-04T09:09:14.053Z,78.91
2022-11-04T09:10:13.973Z,78.88
2022-11-04T09:11:14.023Z,77.52
2022-11-04T09:12:14.103Z,77.42
2022-11-04T09:13:14.007Z,75.76
2022-11-04T09:14:14.011Z,75.56
2022-11-04T09:15:13.980Z,75.19
2022-11-04T09:16:13.939Z,75.70
2022-11-04T09:17:13.914Z,75.90
2022-11-04T09:18:14.031Z,75.83
2022-11-04T09:19:13.877Z,75.36
2022-11-04T09:20:13.983Z,77.90
2022-11-04T09:21:13.868Z,76.51
2022-11-04T09:22:13.889Z,77.43
2022-11-04T09:23:13.825Z,76.41
2022-11-04T09:24:13.955Z,77.49
2022-11-04T09:25:13.862Z,76.28
2022-11-04T09:26:13.865Z,76.98
2022-11-04T09:27:13.900Z,76.41
2022-11-04T09:28:13.809Z,78.64
2022-11-04T09:29:13.830Z,77.73
2022-11-04T09:30:13.755Z,78.78
2022-11-04T09:31:13.742Z,77.56
2022-11-04T09:32:13.752Z,78.17
2022-11-04T09:33:13.783Z,78.99
2022-11-04T09:34:13.872Z,77.40
2022-11-04T09:35:13.739Z,78.31
2022-11-04T09:36:13.682Z,79.13
2022-11-04T09:37:13.700Z,80.18
2022-11-04T09:38:13.777Z,81.91
2022-11-04T09:39:13.730Z,81.30
2022-11-04T09:40:13.675Z,80.38
2022-11-04T09:41:13.757Z,79.88
2022-11-04T09:42:13.868Z,77.37
2022-11-04T09:43:13.615Z,78.83
2022-11-04T09:44:13.652Z,79.10
2022-11-04T09:45:22.460Z,81.07
2022-11-04T09:46:14.613Z,80.02
2022-11-04T09:47:16.794Z,79.91
2022-11-04T09:48:14.547Z,80.77
2022-11-04T09:49:13.616Z,80.93
2022-11-04T09:50:13.739Z,81.74
2022-11-04T09:51:32.444Z,83.58
2022-11-04T09:52:14.561Z,81.95
2022-11-04T09:53:13.583Z,81.65
2022-11-04T09:54:13.586Z,82.15
2022-11-04T09:55:13.561Z,80.73
2022-11-04T09:56:13.529Z,80.77
2022-11-04T09:57:13.594Z,81.95
2022-11-04T09:58:13.570Z,83.58
2022-11-04T09:59:13.538Z,83.58
2022-11-04T10:00:13.467Z,83.54
2022-11-04T10:01:13.448Z,81.51
2022-11-04T10:02:17.709Z,79.57
2022-11-04T10:03:14.517Z,79.91
2022-11-04T10:04:13.439Z,82.15
2022-11-04T10:05:13.393Z,80.02
2022-11-04T10:06:13.648Z,80.73
2022-11-04T10:07:13.448Z,83.58
2022-11-04T10:08:13.386Z,83.68
2022-11-04T10:09:13.493Z,84.53
2022-11-04T10:10:13.380Z,83.07
2022-11-04T10:11:13.341Z,82.15
2022-11-04T10:12:13.329Z,82.50
2022-11-04T10:13:13.452Z,83.78
2022-11-04T10:14:13.341Z,83.48
2022-11-04T10:15:13.306Z,83.78
2022-11-04T10:16:13.311Z,82.05
2022-11-04T10:17:13.368Z,80.36
2022-11-04T10:18:13.235Z,82.70
2022-11-04T10:19:13.279Z,81.85
2022-11-04T10:20:13.203Z,83.62
2022-11-04T10:21:13.263Z,81.65
2022-11-04T10:22:13.284Z,82.29
2022-11-04T10:23:13.482Z,85.21
2022-11-04T10:24:13.261Z,80.42
2022-11-04T10:25:13.334Z,82.26
2022-11-04T10:26:13.358Z,80.22
2022-11-04T10:27:13.134Z,80.73
2022-11-04T10:28:13.159Z,81.95
2022-11-04T10:29:13.133Z,79.95
2022-11-04T10:30:13.124Z,82.46
2022-11-04T10:31:13.168Z,84.29
2022-11-04T10:32:14.457Z,79.10
2022-11-04T10:33:13.345Z,80.42
2022-11-04T10:34:13.049Z,79.77
2022-11-04T10:35:13.051Z,80.59
2022-11-04T10:36:13.057Z,80.69
2022-11-04T10:37:13.039Z,82.28
2022-11-04T10:38:13.164Z,82.28
2022-11-04T10:39:12.999Z,81.98
2022-11-04T10:40:12.976Z,81.53
2022-11-04T10:41:13.010Z,76.38
2022-11-04T10:42:12.969Z,77.87
2022-11-04T10:43:13.027Z,77.50
2022-11-04T10:44:13.031Z,78.31
2022-11-04T10:45:12.943Z,78.99
2022-11-04T10:46:12.964Z,80.00
2022-11-04T10:47:12.953Z,77.56
2022-11-04T10:48:13.060Z,79.29
2022-11-04T10:49:12.924Z,78.89
2022-11-04T10:50:30.192Z,80.41
2022-11-04T10:51:13.955Z,79.50
2022-11-04T10:52:12.963Z,80.62
2022-11-04T10:53:12.854Z,78.78
2022-11-04T10:54:13.082Z,79.05
2022-11-04T10:55:12.838Z,79.70
2022-11-04T10:56:12.893Z,80.92
2022-11-04T10:57:12.830Z,83.67
2022-11-04T10:58:12.808Z,76.65
2022-11-04T10:59:17.574Z,76.45
2022-11-04T11:00:13.821Z,75.37
2022-11-04T11:01:15.135Z,75.46
2022-11-04T11:02:12.834Z,76.18
2022-11-04T11:03:12.837Z,78.62
2022-11-04T11:04:12.765Z,79.33
2022-11-04T11:05:12.754Z,79.33
2022-11-04T11:06:12.872Z,80.65
2022-11-04T11:07:12.782Z,79.53
2022-11-04T11:08:12.770Z,79.53
2022-11-04T11:09:12.745Z,79.47
2022-11-04T11:10:12.814Z,80.38
2022-11-04T11:11:12.707Z,81.81
2022-11-04T11:12:44.170Z,80.69
2022-11-04T11:13:13.631Z,82.32
2022-11-04T11:14:12.618Z,81.81
2022-11-04T11:15:14.740Z,81.81
2022-11-04T11:16:12.737Z,81.85
2022-11-04T11:17:12.604Z,82.66
2022-11-04T11:18:12.617Z,83.58
2022-11-04T11:19:12.585Z,84.50
2022-11-04T11:20:12.553Z,84.80
2022-11-04T11:21:12.575Z,84.80
2022-11-04T11:22:12.671Z,84.59
2022-11-04T11:23:12.821Z,85.31
2022-11-04T11:24:12.566Z,84.09
2022-11-04T11:25:12.506Z,84.19
2022-11-04T11:26:12.537Z,83.48
2022-11-04T11:27:12.551Z,85.11
2022-11-04T11:28:12.499Z,83.58
2022-11-04T11:29:12.498Z,83.68
2022-11-04T11:30:12.484Z,84.39
2022-11-04T11:31:12.447Z,85.00
2022-11-04T11:32:12.481Z,83.78
2022-11-04T11:33:12.615Z,82.76
2022-11-04T11:34:12.451Z,83.89
2022-11-04T11:35:12.428Z,82.97
2022-11-04T11:36:12.519Z,82.76
2022-11-04T11:37:12.425Z,82.40
2022-11-04T11:38:12.346Z,83.21
2022-11-04T11:39:12.346Z,83.62
2022-11-04T11:40:12.337Z,83.72
2022-11-04T11:41:24.911Z,84.33
2022-11-04T11:42:13.392Z,85.96
2022-11-04T11:43:12.298Z,85.51
2022-11-04T11:44:12.336Z,83.89
2022-11-04T11:45:12.266Z,82.56
2022-11-04T11:46:12.359Z,83.27
2022-11-04T11:47:12.375Z,81.95
2022-11-04T11:48:12.248Z,83.68
2022-11-04T11:49:12.261Z,85.31
2022-11-04T11:50:12.215Z,83.84
2022-11-04T11:51:12.281Z,82.73
2022-11-04T11:52:12.221Z,83.95
2022-11-04T11:53:12.250Z,81.20
2022-11-04T11:54:19.731Z,82.12
2022-11-04T11:55:12.173Z,81.51
2022-11-04T11:56:12.169Z,80.79
2022-11-04T11:57:14.257Z,81.91
2022-11-04T12:01:22.060Z,82.42
2022-11-04T12:02:13.236Z,82.12
2022-11-04T12:03:13.233Z,82.01
2022-11-04T12:06:16.687Z,83.64
2022-11-04T12:10:18.575Z,83.91
2022-11-04T12:11:12.980Z,82.07
2022-11-04T12:12:12.034Z,83.13
2022-11-04T12:13:23.574Z,81.06
2022-11-04T12:14:13.037Z,81.20
2022-11-04T12:15:11.953Z,83.64
2022-11-04T12:16:12.002Z,82.15
2022-11-04T12:17:12.010Z,83.98
2022-11-04T12:18:11.975Z,85.31
2022-11-04T12:19:11.956Z,86.47
2022-11-04T12:20:15.043Z,86.77
2022-11-04T12:21:11.914Z,85.25
2022-11-04T12:22:11.860Z,85.75
2022-11-04T12:23:12.208Z,86.10
2022-11-04T12:24:11.869Z,88.40
2022-11-04T12:25:11.841Z,89.47
2022-11-04T12:26:11.859Z,86.88
2022-11-04T12:27:11.842Z,90.50
2022-11-04T12:28:11.855Z,89.18
2022-11-04T12:29:11.781Z,87.90
2022-11-04T12:30:11.788Z,85.75
2022-11-04T12:31:11.818Z,86.88
2022-11-04T12:32:11.831Z,89.01
2022-11-04T12:33:12.170Z,87.08
2022-11-04T12:34:11.741Z,87.04
2022-11-04T12:35:11.727Z,91.42
2022-11-04T12:36:11.840Z,86.02
2022-11-04T12:37:11.717Z,86.69
2022-11-04T12:38:11.686Z,82.97
2022-11-04T12:39:11.673Z,84.56
2022-11-04T12:40:11.730Z,83.54
2022-11-04T12:41:37.604Z,84.05
2022-11-04T12:42:20.956Z,83.95
2022-11-04T12:43:12.911Z,82.48
2022-11-04T12:44:11.681Z,82.28
2022-11-04T12:45:11.648Z,82.07
2022-11-04T12:46:11.669Z,85.23
2022-11-04T12:47:11.604Z,85.49
2022-11-04T12:48:11.650Z,84.38
2022-11-04T12:49:11.611Z,87.08
2022-11-04T12:50:11.586Z,84.03
2022-11-04T12:51:11.608Z,83.53
2022-11-04T12:52:11.542Z,81.96
2022-11-04T12:53:11.946Z,79.02
2022-11-04T12:54:11.517Z,78.27
2022-11-04T12:55:11.504Z,80.53
2022-11-04T12:56:11.552Z,82.66
2022-11-04T12:57:11.501Z,79.68
2022-11-04T12:58:11.527Z,77.45
2022-11-04T12:59:11.501Z,76.80
2022-11-04T13:00:11.541Z,79.46
2022-11-04T13:01:15.351Z,77.97